< Typhoon 199117 1991 Season Typhoon 199119 >
Typhoon 199118 (LUKE)
General InformationTrack Information on Google MapsDetailed Wind InformationList of All Images || NewsDisaster Info.ResourceGoogle EarthGE AnimationAtom FeedGeoJSON
Detalied Best Track (Time Zone = UTC)
Year Month Day Hour Lat. Long. Pressure (hPa) Wind (kt) Class Image Chart
1991 9 14 00 15.0 144.5 1006 0 2 Image Chart
1991 9 14 06 16.0 143.0 1004 0 2 Image Chart
1991 9 14 12 16.4 142.3 1004 0 2 Image Chart
1991 9 14 18 16.7 141.0 1004 0 2 Image Chart
1991 9 15 00 17.5 139.8 1002 0 2 Image Chart
1991 9 15 06 18.0 138.5 1000 0 2 Image Chart
1991 9 15 12 18.6 137.2 998 35 3 Image Chart
1991 9 15 18 18.9 136.4 998 35 3 Image Chart
1991 9 16 00 19.9 135.0 996 35 3 Image Chart
1991 9 16 06 21.3 133.7 994 35 3 Image Chart
1991 9 16 12 21.7 132.6 994 35 3 Image Chart
1991 9 16 18 22.1 131.7 990 45 3 Image Chart
1991 9 17 00 22.4 131.1 990 45 3 Image Chart
1991 9 17 03 22.4 130.8 990 45 3 Image Chart
1991 9 17 06 22.4 130.4 990 45 3 Image Chart
1991 9 17 09 22.4 130.0 990 45 3 Image Chart
1991 9 17 12 22.5 129.5 990 45 3 Image Chart
1991 9 17 15 22.8 129.1 990 45 3 Image Chart
1991 9 17 18 23.6 129.3 985 50 4 Image Chart
1991 9 17 21 24.5 129.7 985 50 4 Image Chart
1991 9 18 00 25.4 130.1 980 55 4 Image Chart
1991 9 18 03 26.2 130.4 980 55 4 Image Chart
1991 9 18 06 26.7 130.8 980 55 4 Image Chart
1991 9 18 09 27.2 131.2 980 55 4 Image Chart
1991 9 18 12 27.6 131.7 980 55 4 Image Chart
1991 9 18 15 28.2 132.4 980 55 4 Image Chart
1991 9 18 18 28.7 133.3 980 55 4 Image Chart
1991 9 18 21 29.2 134.4 980 55 4 Image Chart
1991 9 19 00 29.7 135.6 980 55 4 Image Chart
1991 9 19 03 30.2 137.0 980 55 4 Image Chart
1991 9 19 06 31.6 138.5 980 55 4 Image Chart
1991 9 19 09 33.9 140.0 980 55 4 Image Chart
1991 9 19 12 35.8 141.4 980 55 4 Image Chart
1991 9 19 15 37.2 142.6 985 55 4 Image Chart
1991 9 19 18 38.4 144.7 985 55 4 Image Chart
1991 9 19 21 39.5 147.0 990 50 4 Image Chart
1991 9 20 00 41.0 149.0 990 0 6 Image Chart
1991 9 20 06 42.0 154.0 990 0 6 Image Chart
1991 9 20 12 42.0 160.0 990 0 6 Image Chart
1991 9 20 18 43.0 165.0 992 0 6 Image Chart
1991 9 21 00 44.0 169.0 988 0 6 Image Chart
1991 9 21 06 46.0 175.0 976 0 6 Image Chart
1991 9 21 12 47.0 180.0 972 0 6 Image Chart
1991 9 21 18 47.0 185.0 964 0 6 Image Chart
Japan Meteorological Agency Best Track Data | Correction Date : 1992-01-04
< Typhoon 199117 1991 Season Typhoon 199119 >

Help